createdAt,value
2022-10-16T00:01:42.198Z,98139.84
2022-10-16T00:04:10.944Z,98145.59
2022-10-16T00:06:39.337Z,98145.34
2022-10-16T00:09:07.812Z,98146.78
2022-10-16T00:11:39.948Z,98157.91
2022-10-16T00:14:12.950Z,98146.22
2022-10-16T00:16:42.298Z,98158.06
2022-10-16T00:19:13.115Z,98161.06
2022-10-16T00:21:42.118Z,98161.09
2022-10-16T00:24:11.258Z,98162.66
2022-10-16T00:26:39.742Z,98165.28
2022-10-16T00:29:08.155Z,98169.75
2022-10-16T00:31:36.672Z,98171.56
2022-10-16T00:34:05.108Z,98167.00
2022-10-16T00:36:33.515Z,98172.91
2022-10-16T00:39:03.045Z,98168.78
2022-10-16T00:41:32.069Z,98169.41
2022-10-16T00:44:05.540Z,98164.41
2022-10-16T00:46:37.800Z,98170.47
2022-10-16T00:49:10.338Z,98174.63
2022-10-16T00:51:44.091Z,98176.91
2022-10-16T00:54:20.365Z,98179.47
2022-10-16T00:56:48.810Z,98170.13
2022-10-16T00:59:21.975Z,98175.19
2022-10-16T01:01:50.265Z,98177.03
2022-10-16T01:04:20.553Z,98183.81
2022-10-16T01:07:10.159Z,98178.13
2022-10-16T01:09:49.845Z,98185.47
2022-10-16T01:12:32.402Z,98179.53
2022-10-16T01:15:03.615Z,98172.22
2022-10-16T01:17:49.866Z,98176.63
2022-10-16T01:20:39.449Z,98176.63
2022-10-16T01:23:11.156Z,98168.97
2022-10-16T01:25:53.087Z,98181.50
2022-10-16T01:28:23.468Z,98186.63
2022-10-16T01:30:52.760Z,98186.34
2022-10-16T01:33:22.966Z,98185.06
2022-10-16T01:35:56.707Z,98180.81
2022-10-16T01:38:27.418Z,98188.69
2022-10-16T01:41:06.747Z,98191.19
2022-10-16T01:43:42.071Z,98194.97
2022-10-16T01:46:11.277Z,98191.53
2022-10-16T01:48:39.578Z,98190.16
2022-10-16T01:51:14.897Z,98190.84
2022-10-16T01:53:44.168Z,98198.59
2022-10-16T01:56:13.439Z,98194.44
2022-10-16T01:58:55.929Z,98198.28
2022-10-16T02:01:24.917Z,98198.88
2022-10-16T02:03:54.399Z,98203.38
2022-10-16T02:06:23.971Z,98199.97
2022-10-16T02:08:52.332Z,98211.69
2022-10-16T02:11:20.717Z,98208.97
2022-10-16T02:13:54.757Z,98206.91
2022-10-16T02:16:27.930Z,98209.78
2022-10-16T02:18:56.962Z,98205.00
2022-10-16T02:21:27.340Z,98209.28
2022-10-16T02:24:00.148Z,98200.56
2022-10-16T02:26:37.347Z,98213.84
2022-10-16T02:29:09.366Z,98213.59
2022-10-16T02:31:39.906Z,98213.91
2022-10-16T02:34:08.525Z,98202.28
2022-10-16T02:36:36.967Z,98206.03
2022-10-16T02:39:05.583Z,98210.22
2022-10-16T02:41:34.001Z,98206.06
2022-10-16T02:44:02.377Z,98209.19
2022-10-16T02:46:30.772Z,98216.53
2022-10-16T02:48:59.105Z,98221.56
2022-10-16T02:51:28.161Z,98226.06
2022-10-16T02:53:56.568Z,98227.28
2022-10-16T02:56:25.304Z,98216.63
2022-10-16T02:58:53.687Z,98219.97
2022-10-16T03:01:22.005Z,98217.25
2022-10-16T03:03:51.866Z,98216.88
2022-10-16T03:06:20.890Z,98221.88
2022-10-16T03:08:49.183Z,98226.53
2022-10-16T03:11:17.582Z,98231.69
2022-10-16T03:13:46.526Z,98228.84
2022-10-16T03:16:14.782Z,98226.75
2022-10-16T03:18:43.142Z,98237.72
2022-10-16T03:21:11.451Z,98219.78
2022-10-16T03:23:39.784Z,98231.56
2022-10-16T03:26:08.107Z,98236.25
2022-10-16T03:28:36.890Z,98242.38
2022-10-16T03:31:05.360Z,98241.56
2022-10-16T03:33:34.311Z,98235.53
2022-10-16T03:36:03.424Z,98246.75
2022-10-16T03:38:31.822Z,98248.16
2022-10-16T03:41:00.165Z,98255.50
2022-10-16T03:43:28.522Z,98251.69
2022-10-16T03:45:56.839Z,98255.41
2022-10-16T03:48:25.188Z,98256.44
2022-10-16T03:50:53.486Z,98255.81
2022-10-16T03:53:23.066Z,98252.38
2022-10-16T03:55:51.973Z,98257.09
2022-10-16T03:58:21.372Z,98256.97
2022-10-16T04:00:49.861Z,98248.22
2022-10-16T04:03:20.285Z,98251.31
2022-10-16T04:05:48.674Z,98239.38
2022-10-16T04:08:17.136Z,98243.88
2022-10-16T04:10:46.295Z,98244.38
2022-10-16T04:13:14.662Z,98238.13
2022-10-16T04:15:43.170Z,98249.25
2022-10-16T04:18:11.486Z,98250.81
2022-10-16T04:20:39.793Z,98244.66
2022-10-16T04:23:08.744Z,98255.84
2022-10-16T04:25:37.683Z,98258.78
2022-10-16T04:28:06.040Z,98267.38
2022-10-16T04:30:35.130Z,98260.56
2022-10-16T04:33:03.566Z,98275.16
2022-10-16T04:35:31.837Z,98275.94
2022-10-16T04:38:00.810Z,98273.22
2022-10-16T04:40:29.288Z,98274.59
2022-10-16T04:42:57.754Z,98277.00
2022-10-16T04:45:26.429Z,98290.25
2022-10-16T04:47:58.372Z,98284.59
2022-10-16T04:50:26.816Z,98289.91
2022-10-16T04:53:08.078Z,98292.88
2022-10-16T04:55:37.460Z,98294.28
2022-10-16T04:58:06.078Z,98295.59
2022-10-16T05:00:34.806Z,98286.53
2022-10-16T05:03:07.239Z,98286.56
2022-10-16T05:05:36.525Z,98297.97
2022-10-16T05:08:05.583Z,98286.41
2022-10-16T05:10:33.996Z,98300.16
2022-10-16T05:13:02.403Z,98297.88
2022-10-16T05:15:30.817Z,98304.16
2022-10-16T05:18:00.456Z,98301.88
2022-10-16T05:20:28.970Z,98304.41
2022-10-16T05:22:57.416Z,98304.91
2022-10-16T05:25:25.789Z,98316.38
2022-10-16T05:27:54.747Z,98314.69
2022-10-16T05:30:23.160Z,98313.97
2022-10-16T05:32:51.834Z,98321.50
2022-10-16T05:35:20.698Z,98315.97
2022-10-16T05:37:49.160Z,98317.47
2022-10-16T05:40:18.331Z,98316.31
2022-10-16T05:42:50.473Z,98322.34
2022-10-16T05:45:19.515Z,98319.00
2022-10-16T05:47:48.001Z,98322.09
2022-10-16T05:50:16.892Z,98331.44
2022-10-16T05:52:45.858Z,98329.06
2022-10-16T05:55:14.422Z,98329.47
2022-10-16T05:57:43.749Z,98332.41
2022-10-16T06:00:14.562Z,98339.41
2022-10-16T06:02:44.088Z,98334.25
2022-10-16T06:05:12.645Z,98334.97
2022-10-16T06:07:41.252Z,98337.13
2022-10-16T06:10:10.302Z,98340.66
2022-10-16T06:12:38.986Z,98334.69
2022-10-16T06:15:08.852Z,98345.34
2022-10-16T06:17:37.134Z,98350.75
2022-10-16T06:20:05.914Z,98352.88
2022-10-16T06:22:34.420Z,98356.16
2022-10-16T06:25:03.528Z,98360.47
2022-10-16T06:27:33.136Z,98359.59
2022-10-16T06:30:02.702Z,98358.88
2022-10-16T06:32:31.691Z,98369.84
2022-10-16T06:35:00.133Z,98376.31
2022-10-16T06:37:29.054Z,98374.81
2022-10-16T06:39:57.826Z,98380.25
2022-10-16T06:42:26.728Z,98390.66
2022-10-16T06:44:55.824Z,98390.97
2022-10-16T06:47:25.037Z,98397.50
2022-10-16T06:49:54.575Z,98394.22
2022-10-16T06:52:23.129Z,98398.56
2022-10-16T06:54:51.639Z,98407.88
2022-10-16T06:57:19.986Z,98403.09
2022-10-16T06:59:54.535Z,98405.97
2022-10-16T07:02:29.471Z,98406.13
2022-10-16T07:04:59.958Z,98407.75
2022-10-16T07:07:30.439Z,98409.28
2022-10-16T07:09:59.707Z,98417.38
2022-10-16T07:12:28.763Z,98418.75
2022-10-16T07:14:58.874Z,98418.19
2022-10-16T07:17:30.464Z,98417.28
2022-10-16T07:20:05.733Z,98420.59
2022-10-16T07:22:36.993Z,98423.00
2022-10-16T07:25:06.282Z,98421.53
2022-10-16T07:30:13.553Z,98420.81
2022-10-16T07:32:45.153Z,98420.31
2022-10-16T07:35:15.503Z,98419.94
2022-10-16T07:37:53.866Z,98410.34
2022-10-16T07:40:26.186Z,98404.56
2022-10-16T07:42:55.568Z,98410.56
2022-10-16T07:45:24.317Z,98407.50
2022-10-16T07:47:56.211Z,98403.78
2022-10-16T07:50:25.231Z,98407.13
2022-10-16T07:53:02.323Z,98406.31
2022-10-16T07:55:30.658Z,98401.63
2022-10-16T07:57:59.891Z,98397.69
2022-10-16T08:00:29.297Z,98404.25
2022-10-16T08:03:04.421Z,98410.16
2022-10-16T08:05:33.464Z,98402.09
2022-10-16T08:08:03.971Z,98409.47
2022-10-16T08:10:32.985Z,98405.25
2022-10-16T08:13:01.500Z,98409.69
2022-10-16T08:15:30.226Z,98404.00
2022-10-16T08:18:00.311Z,98403.78
2022-10-16T08:20:29.520Z,98407.09
2022-10-16T08:23:00.783Z,98410.72
2022-10-16T08:25:31.100Z,98405.81
2022-10-16T08:28:00.299Z,98402.91
2022-10-16T08:30:28.836Z,98412.97
2022-10-16T08:32:59.442Z,98399.44
2022-10-16T08:35:28.979Z,98407.56
2022-10-16T08:37:57.382Z,98404.91
2022-10-16T08:40:33.481Z,98405.34
2022-10-16T08:43:29.538Z,98407.91
2022-10-16T08:46:24.290Z,98416.31
2022-10-16T08:48:57.272Z,98413.75
2022-10-16T08:51:33.779Z,98411.56
2022-10-16T08:54:07.562Z,98418.50
2022-10-16T08:56:35.982Z,98413.16
2022-10-16T08:59:05.675Z,98414.97
2022-10-16T09:01:40.597Z,98414.97
2022-10-16T09:04:22.240Z,98412.00
2022-10-16T09:07:02.274Z,98410.63
2022-10-16T09:10:04.360Z,98410.34
2022-10-16T09:12:47.149Z,98408.97
2022-10-16T09:15:37.072Z,98410.00
2022-10-16T09:18:16.553Z,98400.38
2022-10-16T09:21:06.640Z,98399.28
2022-10-16T09:23:36.818Z,98400.50
2022-10-16T09:26:10.888Z,98401.56
2022-10-16T09:28:39.748Z,98400.16
2022-10-16T09:31:16.521Z,98395.97
2022-10-16T09:33:44.994Z,98391.56
2022-10-16T09:36:13.584Z,98384.53
2022-10-16T09:38:42.135Z,98385.16
2022-10-16T09:41:20.135Z,98391.28
2022-10-16T09:43:56.800Z,98376.09
2022-10-16T09:46:36.771Z,98377.03
2022-10-16T09:49:27.602Z,98383.91
2022-10-16T09:52:19.151Z,98368.66
2022-10-16T09:55:01.564Z,98367.06
2022-10-16T09:57:31.369Z,98371.22
2022-10-16T10:00:13.347Z,98354.25
2022-10-16T10:02:41.840Z,98360.28
2022-10-16T10:05:24.158Z,98363.53
2022-10-16T10:08:09.650Z,98352.75
2022-10-16T10:10:43.351Z,98343.25
2022-10-16T10:13:21.670Z,98349.16
2022-10-16T10:15:50.051Z,98351.47
2022-10-16T10:18:24.870Z,98346.41
2022-10-16T10:23:33.500Z,98342.06
2022-10-16T10:26:20.331Z,98336.41
2022-10-16T10:29:00.652Z,98333.91
2022-10-16T10:31:31.279Z,98323.53
2022-10-16T10:34:12.664Z,98325.84
2022-10-16T10:36:43.069Z,98327.34
2022-10-16T10:42:00.586Z,98313.75
2022-10-16T10:44:32.417Z,98315.03
2022-10-16T10:47:14.267Z,98321.50
2022-10-16T10:49:48.938Z,98316.03
2022-10-16T10:52:35.856Z,98313.28
2022-10-16T10:55:43.216Z,98323.72
2022-10-16T10:58:45.914Z,98317.34
2022-10-16T11:01:43.087Z,98323.25
2022-10-16T11:04:21.384Z,98300.38
2022-10-16T11:07:17.034Z,98299.75
2022-10-16T11:09:57.882Z,98299.03
2022-10-16T11:12:40.716Z,98291.44
2022-10-16T11:15:23.422Z,98298.59
2022-10-16T11:18:01.753Z,98281.44
2022-10-16T11:20:33.472Z,98295.22
2022-10-16T11:23:14.387Z,98285.41
2022-10-16T11:25:43.793Z,98290.22
2022-10-16T11:28:28.031Z,98279.53
2022-10-16T11:31:20.142Z,98290.97
2022-10-16T11:34:04.251Z,98286.19
2022-10-16T11:37:11.984Z,98282.53
2022-10-16T11:39:40.779Z,98285.44
2022-10-16T11:42:20.559Z,98286.16
2022-10-16T11:45:09.109Z,98283.69
2022-10-16T11:47:59.141Z,98283.41
2022-10-16T11:50:46.868Z,98276.44
2022-10-16T11:53:54.123Z,98278.44
2022-10-16T11:56:23.681Z,98267.00
2022-10-16T11:59:03.984Z,98274.00
2022-10-16T12:02:10.380Z,98278.06
2022-10-16T12:04:46.772Z,98275.94
2022-10-16T12:07:34.470Z,98274.16
2022-10-16T12:13:36.966Z,98276.88
2022-10-16T12:16:32.078Z,98281.78
2022-10-16T12:19:18.544Z,98282.75
2022-10-16T12:21:49.922Z,98269.00
2022-10-16T12:24:43.624Z,98275.47
2022-10-16T12:27:31.041Z,98279.91
2022-10-16T12:30:05.042Z,98279.72
2022-10-16T12:32:46.763Z,98278.69
2022-10-16T12:35:24.542Z,98274.75
2022-10-16T12:37:53.231Z,98271.34
2022-10-16T12:40:33.235Z,98274.88
2022-10-16T12:43:30.711Z,98269.59
2022-10-16T12:46:24.591Z,98275.78
2022-10-16T12:49:06.564Z,98271.63
2022-10-16T12:51:47.521Z,98277.03
2022-10-16T12:54:26.853Z,98275.63
2022-10-16T12:57:36.754Z,98272.69
2022-10-16T13:00:47.323Z,98274.28
2022-10-16T13:03:43.425Z,98274.91
2022-10-16T13:06:34.296Z,98273.78
2022-10-16T13:09:21.110Z,98276.13
2022-10-16T13:12:21.841Z,98283.34
2022-10-16T13:15:02.428Z,98290.44
2022-10-16T13:17:55.075Z,98288.16
2022-10-16T13:20:45.030Z,98281.03
2022-10-16T13:23:31.494Z,98291.78
2022-10-16T13:26:18.616Z,98286.19
2022-10-16T13:28:47.271Z,98282.00
2022-10-16T13:31:25.691Z,98279.31
2022-10-16T13:33:56.954Z,98279.53
2022-10-16T13:36:30.234Z,98286.06
2022-10-16T13:39:31.635Z,98290.34
2022-10-16T13:42:11.098Z,98278.97
2022-10-16T13:44:49.501Z,98294.78
2022-10-16T13:47:24.798Z,98292.28
2022-10-16T13:50:04.782Z,98293.69
2022-10-16T13:52:34.624Z,98292.19
2022-10-16T13:55:03.589Z,98294.56
2022-10-16T13:57:38.463Z,98301.91
2022-10-16T14:00:31.700Z,98296.84
2022-10-16T14:03:08.731Z,98303.97
2022-10-16T14:05:49.662Z,98301.91
2022-10-16T14:08:18.205Z,98306.47
2022-10-16T14:10:52.538Z,98305.00
2022-10-16T14:13:24.870Z,98310.13
2022-10-16T14:16:00.318Z,98313.78
2022-10-16T14:18:33.612Z,98302.38
2022-10-16T14:21:10.114Z,98316.38
2022-10-16T14:23:39.688Z,98316.28
2022-10-16T14:26:17.518Z,98312.50
2022-10-16T14:28:47.231Z,98326.31
2022-10-16T14:31:34.891Z,98310.59
2022-10-16T14:34:05.462Z,98316.28
2022-10-16T14:36:34.939Z,98320.38
2022-10-16T14:39:06.519Z,98317.88
2022-10-16T14:41:43.994Z,98322.00
2022-10-16T14:44:12.755Z,98324.13
2022-10-16T14:46:42.343Z,98341.50
2022-10-16T14:49:16.040Z,98339.34
2022-10-16T14:51:47.095Z,98338.09
2022-10-16T14:54:17.362Z,98348.72
2022-10-16T14:56:56.670Z,98336.50
2022-10-16T14:59:59.566Z,98333.44
2022-10-16T15:02:35.577Z,98337.00
2022-10-16T15:05:20.207Z,98339.50
2022-10-16T15:07:48.897Z,98334.47
2022-10-16T15:10:21.036Z,98331.63
2022-10-16T15:12:49.709Z,98344.59
2022-10-16T15:15:37.183Z,98335.03
2022-10-16T15:18:10.221Z,98343.38
2022-10-16T15:20:47.151Z,98349.72
2022-10-16T15:23:18.712Z,98350.91
2022-10-16T15:25:48.983Z,98354.56
2022-10-16T15:28:18.914Z,98363.81
2022-10-16T15:30:50.475Z,98362.88
2022-10-16T15:33:24.841Z,98371.53
2022-10-16T15:35:55.065Z,98367.56
2022-10-16T15:38:24.706Z,98368.53
2022-10-16T15:40:53.410Z,98371.72
2022-10-16T15:43:22.595Z,98378.97
2022-10-16T15:46:03.771Z,98379.59
2022-10-16T15:48:32.892Z,98377.44
2022-10-16T15:51:02.152Z,98375.69
2022-10-16T15:53:30.772Z,98391.63
2022-10-16T15:55:59.156Z,98392.66
2022-10-16T15:58:31.010Z,98395.38
2022-10-16T16:01:02.455Z,98403.72
2022-10-16T16:03:33.538Z,98402.56
2022-10-16T16:06:10.258Z,98407.72
2022-10-16T16:09:09.389Z,98410.91
2022-10-16T16:11:40.079Z,98404.13
2022-10-16T16:14:12.283Z,98414.53
2022-10-16T16:16:53.236Z,98411.34
2022-10-16T16:19:23.332Z,98425.09
2022-10-16T16:21:55.416Z,98415.69
2022-10-16T16:24:24.863Z,98429.50
2022-10-16T16:26:53.675Z,98429.28
2022-10-16T16:29:23.607Z,98435.63
2022-10-16T16:31:58.567Z,98440.56
2022-10-16T16:34:30.899Z,98445.38
2022-10-16T16:37:01.596Z,98450.22
2022-10-16T16:39:32.027Z,98457.66
2022-10-16T16:42:07.228Z,98464.69
2022-10-16T16:44:41.724Z,98460.34
2022-10-16T16:47:22.998Z,98478.66
2022-10-16T16:50:07.968Z,98479.44
2022-10-16T16:52:37.144Z,98491.47
2022-10-16T16:55:09.015Z,98486.38
2022-10-16T16:57:38.915Z,98494.72
2022-10-16T17:00:11.881Z,98502.59
2022-10-16T17:02:44.566Z,98503.50
2022-10-16T17:05:14.594Z,98504.06
2022-10-16T17:07:47.425Z,98497.88
2022-10-16T17:10:16.194Z,98512.28
2022-10-16T17:12:49.292Z,98512.47
2022-10-16T17:15:19.545Z,98516.47
2022-10-16T17:17:54.596Z,98521.47
2022-10-16T17:20:24.155Z,98514.53
2022-10-16T17:22:52.682Z,98514.47
2022-10-16T17:25:24.941Z,98520.88
2022-10-16T17:27:56.294Z,98520.47
2022-10-16T17:30:29.240Z,98525.19
2022-10-16T17:33:00.941Z,98524.00
2022-10-16T17:38:42.256Z,98527.63
2022-10-16T17:41:30.941Z,98526.09
2022-10-16T17:44:04.630Z,98537.38
2022-10-16T17:46:38.406Z,98538.19
2022-10-16T17:49:29.847Z,98537.84
2022-10-16T17:52:12.523Z,98538.63
2022-10-16T17:54:59.081Z,98540.66
2022-10-16T17:57:30.808Z,98535.78
2022-10-16T18:00:04.074Z,98545.78
2022-10-16T18:02:33.075Z,98547.63
2022-10-16T18:05:09.704Z,98553.34
2022-10-16T18:07:42.949Z,98556.16
2022-10-16T18:10:18.741Z,98551.06
2022-10-16T18:12:51.133Z,98558.59
2022-10-16T18:15:20.017Z,98550.00
2022-10-16T18:21:07.944Z,98559.75
2022-10-16T18:24:05.826Z,98549.34
2022-10-16T18:26:52.106Z,98564.47
2022-10-16T18:29:23.722Z,98566.88
2022-10-16T18:31:58.729Z,98573.53
2022-10-16T18:34:49.724Z,98583.09
2022-10-16T18:37:23.326Z,98586.13
2022-10-16T18:40:08.806Z,98594.50
2022-10-16T18:43:03.193Z,98587.25
2022-10-16T18:45:39.599Z,98596.44
2022-10-16T18:48:10.924Z,98592.94
2022-10-16T18:50:42.785Z,98600.19
2022-10-16T18:53:12.868Z,98607.75
2022-10-16T18:55:44.232Z,98603.19
2022-10-16T18:58:19.469Z,98602.16
2022-10-16T19:00:49.988Z,98608.88
2022-10-16T19:03:20.212Z,98615.13
2022-10-16T19:05:50.550Z,98617.84
2022-10-16T19:08:25.129Z,98625.63
2022-10-16T19:11:24.368Z,98627.56
2022-10-16T19:13:55.403Z,98624.78
2022-10-16T19:16:35.840Z,98625.22
2022-10-16T19:19:07.902Z,98630.22
2022-10-16T19:21:41.868Z,98634.13
2022-10-16T19:24:16.707Z,98631.28
2022-10-16T19:26:47.749Z,98639.28
2022-10-16T19:29:22.320Z,98640.84
2022-10-16T19:31:54.325Z,98648.53
2022-10-16T19:34:30.349Z,98641.16
2022-10-16T19:37:00.165Z,98643.94
2022-10-16T19:39:33.950Z,98649.16
2022-10-16T19:42:04.891Z,98656.59
2022-10-16T19:44:37.649Z,98655.38
2022-10-16T19:47:10.269Z,98660.19
2022-10-16T19:49:40.157Z,98666.47
2022-10-16T19:52:09.747Z,98661.09
2022-10-16T19:54:39.358Z,98672.72
2022-10-16T19:57:10.052Z,98668.78
2022-10-16T19:59:41.890Z,98669.16
2022-10-16T20:02:16.950Z,98676.56
2022-10-16T20:04:45.673Z,98675.78
2022-10-16T20:07:14.099Z,98672.09
2022-10-16T20:09:44.839Z,98675.84
2022-10-16T20:12:13.418Z,98668.97
2022-10-16T20:14:44.290Z,98667.94
2022-10-16T20:17:14.968Z,98675.28
2022-10-16T20:19:43.438Z,98667.28
2022-10-16T20:22:13.102Z,98680.97
2022-10-16T20:24:41.510Z,98678.78
2022-10-16T20:27:11.051Z,98670.88
2022-10-16T20:29:39.809Z,98673.38
2022-10-16T20:32:08.249Z,98679.22
2022-10-16T20:37:12.172Z,98680.47
2022-10-16T20:39:41.410Z,98685.44
2022-10-16T20:42:11.455Z,98690.50
2022-10-16T20:44:40.268Z,98693.34
2022-10-16T20:47:09.238Z,98698.06
2022-10-16T20:49:40.694Z,98698.50
2022-10-16T20:52:09.553Z,98695.66
2022-10-16T20:54:38.112Z,98698.78
2022-10-16T20:57:06.651Z,98704.16
2022-10-16T20:59:35.197Z,98704.66
2022-10-16T21:02:06.193Z,98704.44
2022-10-16T21:04:35.653Z,98706.09
2022-10-16T21:07:04.222Z,98711.97
2022-10-16T21:09:34.267Z,98703.97
2022-10-16T21:12:02.684Z,98697.13
2022-10-16T21:14:31.176Z,98704.38
2022-10-16T21:17:00.270Z,98703.16
2022-10-16T21:19:33.476Z,98711.06
2022-10-16T21:22:01.804Z,98717.28
2022-10-16T21:24:30.671Z,98707.81
2022-10-16T21:26:59.168Z,98713.28
2022-10-16T21:29:27.519Z,98712.38
2022-10-16T21:31:55.937Z,98704.63
2022-10-16T21:34:24.339Z,98709.03
2022-10-16T21:36:52.659Z,98717.28
2022-10-16T21:39:21.313Z,98719.84
2022-10-16T21:41:50.828Z,98717.16
2022-10-16T21:44:20.470Z,98725.63
2022-10-16T21:46:49.337Z,98714.84
2022-10-16T21:49:19.593Z,98719.25
2022-10-16T21:51:49.645Z,98720.78
2022-10-16T21:54:21.062Z,98728.44
2022-10-16T21:56:49.555Z,98723.34
2022-10-16T21:59:18.418Z,98734.31
2022-10-16T22:01:46.996Z,98731.41
2022-10-16T22:04:16.669Z,98737.56
2022-10-16T22:06:45.104Z,98734.84
2022-10-16T22:09:15.532Z,98741.06
2022-10-16T22:11:44.448Z,98748.22
2022-10-16T22:14:17.298Z,98757.22
2022-10-16T22:16:46.671Z,98759.09
2022-10-16T22:19:17.267Z,98759.97
2022-10-16T22:21:48.702Z,98759.28
2022-10-16T22:24:19.658Z,98761.38
2022-10-16T22:26:48.908Z,98764.38
2022-10-16T22:29:17.823Z,98758.97
2022-10-16T22:31:46.414Z,98773.28
2022-10-16T22:34:15.036Z,98766.03
2022-10-16T22:36:43.532Z,98772.47
2022-10-16T22:39:11.960Z,98776.09
2022-10-16T22:41:41.403Z,98777.78
2022-10-16T22:44:12.517Z,98778.53
2022-10-16T22:46:41.061Z,98775.63
2022-10-16T22:49:09.413Z,98779.13
2022-10-16T22:51:37.838Z,98773.41
2022-10-16T22:54:06.280Z,98784.00
2022-10-16T22:56:34.605Z,98779.50
2022-10-16T22:59:03.478Z,98781.59
2022-10-16T23:01:37.156Z,98793.63
2022-10-16T23:04:05.846Z,98788.47
2022-10-16T23:06:34.655Z,98790.44
2022-10-16T23:09:03.804Z,98780.16
2022-10-16T23:11:32.250Z,98786.59
2022-10-16T23:14:00.576Z,98783.97
2022-10-16T23:16:28.918Z,98791.41
2022-10-16T23:18:57.861Z,98790.81
2022-10-16T23:21:26.302Z,98795.91
2022-10-16T23:23:55.095Z,98791.03
2022-10-16T23:26:26.272Z,98797.19
2022-10-16T23:28:56.607Z,98801.25
2022-10-16T23:31:26.107Z,98801.94
2022-10-16T23:33:56.275Z,98794.31
2022-10-16T23:36:25.210Z,98800.16
2022-10-16T23:38:54.263Z,98804.25
2022-10-16T23:41:22.599Z,98795.09
2022-10-16T23:43:51.741Z,98810.84
2022-10-16T23:46:21.235Z,98800.78
2022-10-16T23:48:50.768Z,98807.53
2022-10-16T23:51:19.411Z,98801.94
2022-10-16T23:53:47.831Z,98806.88
2022-10-16T23:56:16.293Z,98802.59
2022-10-16T23:58:45.530Z,98805.78
